createdAt,value
2023-12-15T00:01:51.221Z,7.20
2023-12-15T00:04:19.980Z,5.00
2023-12-15T00:06:48.115Z,7.00
2023-12-15T00:09:16.713Z,7.00
2023-12-15T00:11:44.868Z,7.00
2023-12-15T00:14:13.126Z,7.00
2023-12-15T00:16:41.252Z,11.00
2023-12-15T00:19:10.847Z,5.00
2023-12-15T00:21:39.128Z,7.25
2023-12-15T00:24:10.161Z,7.00
2023-12-15T00:26:38.534Z,7.80
2023-12-15T00:29:06.684Z,6.00
2023-12-15T00:31:34.817Z,8.00
2023-12-15T00:34:02.946Z,7.00
2023-12-15T00:36:32.474Z,7.00
2023-12-15T00:39:00.552Z,5.20
2023-12-15T00:41:28.753Z,7.25
2023-12-15T00:43:56.885Z,6.20
2023-12-15T00:46:25.047Z,7.00
2023-12-15T00:48:53.231Z,7.00
2023-12-15T00:51:20.501Z,6.67
2023-12-15T00:53:49.962Z,7.00
2023-12-15T00:56:18.111Z,6.50
2023-12-15T00:58:46.256Z,7.00
2023-12-15T01:01:14.372Z,7.50
2023-12-15T01:03:42.576Z,6.00
2023-12-15T01:06:10.778Z,7.40
2023-12-15T01:08:38.968Z,8.60
2023-12-15T01:11:09.603Z,12.00
2023-12-15T01:13:37.752Z,7.20
2023-12-15T01:16:07.108Z,7.80
2023-12-15T01:18:35.299Z,7.40
2023-12-15T01:21:03.720Z,8.00
2023-12-15T01:23:31.963Z,6.00
2023-12-15T01:26:00.138Z,8.00
2023-12-15T01:28:29.786Z,7.75
2023-12-15T01:30:57.920Z,8.00
2023-12-15T01:33:26.225Z,10.00
2023-12-15T01:35:54.411Z,7.00
2023-12-15T01:38:22.738Z,6.40
2023-12-15T01:40:51.080Z,6.00
2023-12-15T01:43:19.322Z,7.20
2023-12-15T01:45:55.446Z,7.20
2023-12-15T01:48:31.518Z,11.60
2023-12-15T01:50:59.677Z,10.00
2023-12-15T01:53:27.942Z,7.40
2023-12-15T01:55:56.136Z,7.60
2023-12-15T01:58:24.289Z,6.50
2023-12-15T02:00:54.165Z,8.00
2023-12-15T02:03:22.363Z,6.80
2023-12-15T02:05:51.088Z,7.00
2023-12-15T02:08:19.308Z,7.00
2023-12-15T02:10:47.438Z,6.80
2023-12-15T02:13:15.798Z,9.20
2023-12-15T02:15:43.992Z,7.00
2023-12-15T02:18:13.581Z,7.00
2023-12-15T02:20:41.793Z,7.40
2023-12-15T02:23:11.318Z,10.20
2023-12-15T02:25:39.441Z,7.00
2023-12-15T02:28:07.530Z,6.40
2023-12-15T02:30:35.635Z,6.75
2023-12-15T02:33:04.005Z,5.25
2023-12-15T02:35:32.328Z,5.00
2023-12-15T02:38:01.968Z,7.00
2023-12-15T02:40:31.448Z,10.80
2023-12-15T02:42:59.572Z,6.00
2023-12-15T02:45:27.653Z,6.25
2023-12-15T02:47:55.899Z,7.40
2023-12-15T02:50:24.195Z,6.20
2023-12-15T02:52:52.381Z,5.80
2023-12-15T02:55:20.534Z,7.00
2023-12-15T02:57:49.972Z,12.00
2023-12-15T03:00:18.444Z,6.20
2023-12-15T03:02:46.509Z,6.00
2023-12-15T03:05:14.682Z,6.00
2023-12-15T03:07:42.873Z,9.25
2023-12-15T03:10:11.264Z,7.00
2023-12-15T03:12:39.630Z,5.50
2023-12-15T03:15:10.141Z,5.00
2023-12-15T03:17:38.597Z,4.20
2023-12-15T03:20:08.913Z,3.00
2023-12-15T03:22:37.003Z,3.00
2023-12-15T03:25:06.372Z,6.00
2023-12-15T03:27:34.693Z,5.80
2023-12-15T03:30:02.982Z,5.20
2023-12-15T03:32:32.566Z,4.50
2023-12-15T03:35:00.867Z,5.00
2023-12-15T03:37:29.011Z,5.00
2023-12-15T03:39:57.091Z,3.00
2023-12-15T03:42:25.197Z,4.00
2023-12-15T03:44:54.078Z,5.40
2023-12-15T03:47:22.252Z,6.40
2023-12-15T03:49:51.699Z,5.00
2023-12-15T03:52:19.823Z,5.80
2023-12-15T03:54:48.047Z,7.00
2023-12-15T03:57:16.141Z,6.25
2023-12-15T03:59:44.211Z,3.00
2023-12-15T04:02:16.129Z,4.00
2023-12-15T04:04:44.468Z,5.00
2023-12-15T04:07:13.988Z,6.00
2023-12-15T04:09:42.052Z,5.00
2023-12-15T04:12:10.244Z,5.00
2023-12-15T04:14:38.390Z,3.00
2023-12-15T04:17:06.715Z,6.00
2023-12-15T04:19:34.941Z,4.00
2023-12-15T04:22:03.155Z,6.00
2023-12-15T04:24:32.625Z,6.00
2023-12-15T04:27:00.725Z,6.20
2023-12-15T04:29:28.902Z,7.40
2023-12-15T04:31:57.066Z,6.40
2023-12-15T04:34:24.209Z,6.75
2023-12-15T04:36:52.297Z,7.40
2023-12-15T04:39:20.379Z,5.60
2023-12-15T04:41:49.804Z,3.40
2023-12-15T04:44:17.907Z,6.50
2023-12-15T04:46:45.997Z,6.00
2023-12-15T04:49:14.197Z,8.00
2023-12-15T04:51:42.401Z,6.20
2023-12-15T04:54:10.530Z,7.00
2023-12-15T04:56:38.661Z,6.00
2023-12-15T04:59:08.214Z,5.00
2023-12-15T05:01:36.328Z,6.00
2023-12-15T05:04:04.702Z,7.80
2023-12-15T05:06:33.141Z,10.25
2023-12-15T05:09:01.275Z,7.25
2023-12-15T05:11:29.415Z,6.33
2023-12-15T05:13:57.590Z,6.00
2023-12-15T05:16:27.072Z,8.00
2023-12-15T05:18:55.175Z,4.20
2023-12-15T05:21:23.318Z,6.60
2023-12-15T05:23:51.434Z,8.00
2023-12-15T05:26:19.596Z,10.00
2023-12-15T05:28:47.943Z,7.60
2023-12-15T05:31:16.106Z,7.60
2023-12-15T05:33:46.240Z,8.00
2023-12-15T05:36:19.784Z,7.67
2023-12-15T05:38:48.001Z,9.00
2023-12-15T05:41:16.195Z,7.00
2023-12-15T05:43:45.508Z,6.00
2023-12-15T05:46:14.148Z,7.00
2023-12-15T05:48:42.406Z,8.80
2023-12-15T05:51:11.945Z,8.00
2023-12-15T05:53:48.602Z,13.00
2023-12-15T05:56:23.536Z,11.20
2023-12-15T05:58:51.660Z,11.00
2023-12-15T06:01:19.780Z,8.00
2023-12-15T06:03:47.949Z,9.00
2023-12-15T06:06:17.541Z,12.00
2023-12-15T06:08:45.705Z,12.50
2023-12-15T06:11:13.882Z,9.00
2023-12-15T06:13:43.225Z,8.40
2023-12-15T06:16:18.300Z,11.00
2023-12-15T06:18:46.538Z,10.50
2023-12-15T06:21:23.406Z,11.00
2023-12-15T06:23:51.494Z,11.00
2023-12-15T06:26:19.965Z,13.50
2023-12-15T06:28:48.288Z,11.40
2023-12-15T06:31:16.443Z,10.00
2023-12-15T06:33:44.738Z,8.40
2023-12-15T06:36:13.260Z,11.00
2023-12-15T06:38:44.331Z,10.00
2023-12-15T06:41:12.527Z,9.20
2023-12-15T06:43:41.160Z,7.00
2023-12-15T06:46:09.260Z,12.00
2023-12-15T06:48:37.401Z,11.00
2023-12-15T06:51:07.158Z,10.60
2023-12-15T06:53:36.024Z,13.80
2023-12-15T06:56:06.176Z,9.20
2023-12-15T06:58:34.664Z,15.80
2023-12-15T07:01:02.825Z,9.20
2023-12-15T07:03:31.136Z,8.00
2023-12-15T07:05:59.476Z,12.00
2023-12-15T07:08:27.700Z,12.00
2023-12-15T07:10:55.833Z,10.00
2023-12-15T07:13:25.309Z,12.00
2023-12-15T07:15:53.864Z,16.40
2023-12-15T07:18:22.068Z,10.50
2023-12-15T07:20:50.628Z,16.00
2023-12-15T07:23:18.847Z,10.25
2023-12-15T07:25:46.947Z,9.60
2023-12-15T07:28:15.751Z,12.50
2023-12-15T07:30:45.208Z,9.00
2023-12-15T07:33:13.498Z,11.20
2023-12-15T07:35:41.721Z,13.00
2023-12-15T07:38:10.254Z,11.00
2023-12-15T07:40:38.428Z,10.00
2023-12-15T07:43:06.761Z,15.50
2023-12-15T07:45:34.861Z,11.60
2023-12-15T07:48:04.577Z,39.25
2023-12-15T07:50:32.925Z,36.50
2023-12-15T07:53:01.096Z,31.50
2023-12-15T07:55:29.243Z,29.50
2023-12-15T07:57:57.542Z,35.50
2023-12-15T08:00:25.798Z,35.00
2023-12-15T08:02:54.049Z,25.25
2023-12-15T08:05:23.908Z,21.00
2023-12-15T08:07:52.049Z,15.75
2023-12-15T08:10:20.140Z,15.00
2023-12-15T08:12:48.202Z,21.00
2023-12-15T08:15:16.460Z,16.00
2023-12-15T08:17:44.585Z,15.00
2023-12-15T08:20:13.307Z,15.40
2023-12-15T08:22:42.897Z,14.50
2023-12-15T08:25:11.183Z,29.00
2023-12-15T08:27:41.905Z,19.40
2023-12-15T08:30:10.912Z,19.00
2023-12-15T08:32:39.467Z,16.00
2023-12-15T08:35:08.227Z,15.50
2023-12-15T08:37:36.684Z,14.20
2023-12-15T08:40:07.476Z,15.00
2023-12-15T08:42:35.619Z,19.80
2023-12-15T08:45:03.798Z,27.00
2023-12-15T08:47:32.079Z,16.25
2023-12-15T08:50:00.544Z,31.75
2023-12-15T08:52:28.711Z,18.40
2023-12-15T08:54:57.027Z,15.75
2023-12-15T08:57:26.621Z,32.60
2023-12-15T08:59:54.791Z,17.00
2023-12-15T09:02:22.914Z,17.00
2023-12-15T09:04:59.141Z,16.67
2023-12-15T09:07:30.456Z,17.00
2023-12-15T09:09:58.634Z,15.50
2023-12-15T09:12:28.051Z,16.00
2023-12-15T09:14:57.711Z,21.00
2023-12-15T09:17:26.083Z,17.00
2023-12-15T09:19:54.621Z,24.20
2023-12-15T09:22:22.720Z,18.80
2023-12-15T09:24:53.036Z,17.50
2023-12-15T09:27:21.150Z,18.00
2023-12-15T09:29:51.049Z,19.00
2023-12-15T09:32:19.172Z,20.60
2023-12-15T09:34:47.284Z,33.75
2023-12-15T09:37:15.620Z,27.50
2023-12-15T09:39:43.722Z,21.60
2023-12-15T09:42:11.825Z,21.60
2023-12-15T09:44:52.371Z,18.50
2023-12-15T09:47:29.405Z,20.00
2023-12-15T09:49:57.538Z,22.00
2023-12-15T09:52:25.645Z,17.40
2023-12-15T09:54:53.700Z,21.00
2023-12-15T09:57:21.852Z,25.50
2023-12-15T09:59:49.954Z,26.67
2023-12-15T10:02:18.098Z,23.00
2023-12-15T10:04:49.762Z,26.80
2023-12-15T10:07:17.984Z,26.50
2023-12-15T10:09:46.074Z,26.00
2023-12-15T10:12:14.175Z,23.40
2023-12-15T10:14:42.441Z,27.25
2023-12-15T10:17:11.619Z,27.25
2023-12-15T10:19:40.002Z,22.00
2023-12-15T10:22:09.521Z,21.50
2023-12-15T10:24:37.744Z,21.00
2023-12-15T10:27:09.074Z,21.00
2023-12-15T10:29:39.600Z,25.00
2023-12-15T10:32:08.160Z,20.40
2023-12-15T10:34:36.282Z,23.00
2023-12-15T10:37:05.002Z,26.60
2023-12-15T10:39:34.536Z,23.20
2023-12-15T10:42:03.827Z,20.33
2023-12-15T10:44:31.989Z,23.00
2023-12-15T10:47:00.178Z,23.00
2023-12-15T10:49:35.330Z,30.00
2023-12-15T10:52:08.753Z,32.20
2023-12-15T10:54:38.603Z,26.50
2023-12-15T10:57:06.959Z,22.25
2023-12-15T10:59:35.113Z,31.00
2023-12-15T11:02:03.276Z,33.60
2023-12-15T11:04:32.795Z,41.20
2023-12-15T11:07:00.908Z,36.00
2023-12-15T11:09:42.939Z,36.25
2023-12-15T11:12:31.800Z,41.00
2023-12-15T11:15:01.188Z,28.00
2023-12-15T11:17:30.155Z,29.25
2023-12-15T11:20:07.535Z,23.00
2023-12-15T11:22:53.833Z,35.50
2023-12-15T11:25:22.597Z,34.75
2023-12-15T11:28:02.494Z,30.80
2023-12-15T11:30:32.364Z,28.50
2023-12-15T11:33:00.629Z,26.00
2023-12-15T11:35:29.727Z,42.20
2023-12-15T11:37:59.382Z,39.00
2023-12-15T11:40:30.804Z,35.00
2023-12-15T11:42:59.198Z,25.60
2023-12-15T11:45:30.607Z,29.00
2023-12-15T11:47:58.814Z,34.00
2023-12-15T11:50:26.978Z,28.80
2023-12-15T11:52:57.459Z,28.00
2023-12-15T11:55:25.612Z,34.00
2023-12-15T11:57:55.436Z,36.00
2023-12-15T12:00:23.592Z,27.20
2023-12-15T12:02:53.021Z,30.25
2023-12-15T12:05:21.119Z,27.75
2023-12-15T12:07:50.031Z,30.75
2023-12-15T12:10:18.272Z,29.40
2023-12-15T12:12:46.380Z,36.00
2023-12-15T12:15:14.417Z,36.25
2023-12-15T12:17:42.602Z,39.20
2023-12-15T12:20:13.419Z,30.00
2023-12-15T12:22:41.622Z,36.80
2023-12-15T12:25:11.977Z,30.40
2023-12-15T12:27:40.246Z,36.00
2023-12-15T12:30:12.390Z,32.50
2023-12-15T12:32:40.947Z,37.75
2023-12-15T12:35:09.603Z,32.60
2023-12-15T12:37:39.065Z,46.60
2023-12-15T12:40:08.314Z,36.00
2023-12-15T12:42:37.373Z,24.60
2023-12-15T12:45:07.698Z,35.60
2023-12-15T12:47:39.241Z,31.50
2023-12-15T12:50:08.854Z,36.75
2023-12-15T12:52:38.782Z,49.80
2023-12-15T12:55:08.049Z,30.00
2023-12-15T12:57:36.167Z,36.75
2023-12-15T13:00:08.005Z,38.20
2023-12-15T13:02:36.781Z,41.50
2023-12-15T13:05:05.368Z,46.00
2023-12-15T13:07:33.482Z,37.00
2023-12-15T13:10:02.910Z,48.60
2023-12-15T13:12:30.957Z,38.25
2023-12-15T13:14:59.044Z,36.00
2023-12-15T13:17:27.459Z,35.60
2023-12-15T13:19:55.796Z,30.60
2023-12-15T13:22:38.274Z,41.60
2023-12-15T13:25:15.224Z,43.50
2023-12-15T13:27:43.306Z,28.00
2023-12-15T13:30:12.504Z,48.00
2023-12-15T13:32:41.260Z,40.20
2023-12-15T13:35:10.151Z,47.00
2023-12-15T13:37:38.287Z,33.00
2023-12-15T13:40:07.717Z,31.50
2023-12-15T13:42:37.913Z,39.00
2023-12-15T13:45:07.353Z,45.80
2023-12-15T13:47:35.809Z,37.00
2023-12-15T13:50:04.125Z,24.60
2023-12-15T13:52:33.007Z,36.25
2023-12-15T13:55:01.122Z,31.80
2023-12-15T13:57:29.375Z,36.00
2023-12-15T13:59:58.790Z,25.75
2023-12-15T14:02:26.877Z,28.00
2023-12-15T14:04:54.974Z,36.00
2023-12-15T14:07:23.008Z,34.00
2023-12-15T14:09:51.091Z,39.60
2023-12-15T14:12:19.177Z,36.50
2023-12-15T14:14:49.065Z,36.00
2023-12-15T14:17:18.535Z,34.00
2023-12-15T14:19:47.115Z,28.00
2023-12-15T14:22:17.274Z,22.50
2023-12-15T14:24:47.643Z,36.50
2023-12-15T14:27:15.937Z,28.00
2023-12-15T14:29:46.073Z,26.00
2023-12-15T14:32:15.227Z,32.25
2023-12-15T14:34:44.683Z,32.75
2023-12-15T14:37:12.749Z,28.00
2023-12-15T14:39:40.853Z,21.00
2023-12-15T14:42:09.622Z,29.50
2023-12-15T14:44:37.706Z,21.40
2023-12-15T14:47:05.864Z,23.75
2023-12-15T14:49:34.115Z,20.00
2023-12-15T14:52:03.691Z,26.50
2023-12-15T14:54:31.726Z,21.00
2023-12-15T14:57:00.219Z,22.50
2023-12-15T14:59:28.280Z,22.00
2023-12-15T15:01:58.337Z,19.80
2023-12-15T15:04:26.394Z,21.50
2023-12-15T15:06:54.565Z,17.50
2023-12-15T15:09:23.983Z,22.00
2023-12-15T15:11:52.146Z,24.50
2023-12-15T15:14:20.842Z,20.00
2023-12-15T15:16:48.953Z,23.25
2023-12-15T15:19:17.465Z,22.25
2023-12-15T15:21:45.616Z,28.00
2023-12-15T15:24:13.708Z,21.25
2023-12-15T15:26:43.721Z,24.00
2023-12-15T15:29:11.833Z,26.00
2023-12-15T15:31:40.562Z,21.00
2023-12-15T15:34:08.907Z,21.00
2023-12-15T15:36:39.701Z,21.00
2023-12-15T15:39:07.834Z,23.80
2023-12-15T15:41:35.876Z,33.50
2023-12-15T15:44:10.954Z,23.20
2023-12-15T15:46:43.242Z,23.50
2023-12-15T15:49:11.413Z,22.75
2023-12-15T15:51:39.504Z,23.00
2023-12-15T15:54:07.610Z,22.00
2023-12-15T15:56:35.765Z,27.60
2023-12-15T15:59:07.319Z,27.00
2023-12-15T16:01:40.739Z,22.67
2023-12-15T16:04:11.983Z,27.25
2023-12-15T16:06:40.201Z,27.60
2023-12-15T16:09:08.785Z,24.50
2023-12-15T16:11:36.911Z,26.75
2023-12-15T16:14:10.906Z,21.25
2023-12-15T16:16:40.370Z,25.25
2023-12-15T16:19:09.355Z,26.00
2023-12-15T16:21:37.905Z,22.50
2023-12-15T16:24:08.036Z,21.60
2023-12-15T16:26:36.239Z,19.40
2023-12-15T16:29:04.424Z,22.20
2023-12-15T16:31:33.909Z,20.60
2023-12-15T16:34:03.431Z,27.00
2023-12-15T16:36:31.799Z,25.60
2023-12-15T16:39:00.065Z,22.40
2023-12-15T16:41:28.940Z,22.75
2023-12-15T16:43:57.090Z,22.00
2023-12-15T16:46:25.963Z,16.00
2023-12-15T16:48:56.343Z,24.50
2023-12-15T16:51:26.822Z,16.40
2023-12-15T16:53:55.330Z,21.00
2023-12-15T16:56:23.461Z,25.20
2023-12-15T16:58:51.650Z,22.00
2023-12-15T17:01:19.902Z,21.25
2023-12-15T17:03:48.168Z,25.80
2023-12-15T17:06:17.590Z,19.80
2023-12-15T17:08:45.866Z,21.60
2023-12-15T17:11:14.454Z,24.60
2023-12-15T17:13:43.092Z,22.67
2023-12-15T17:16:14.681Z,31.60
2023-12-15T17:18:46.703Z,38.00
2023-12-15T17:21:15.033Z,32.00
2023-12-15T17:23:44.652Z,47.00
2023-12-15T17:26:16.952Z,29.00
2023-12-15T17:28:45.015Z,29.00
2023-12-15T17:31:13.271Z,28.25
2023-12-15T17:33:41.473Z,21.00
2023-12-15T17:36:11.841Z,22.40
2023-12-15T17:38:40.093Z,27.00
2023-12-15T17:41:09.548Z,27.60
2023-12-15T17:43:37.660Z,26.20
2023-12-15T17:46:06.142Z,20.40
2023-12-15T17:48:34.701Z,21.40
2023-12-15T17:51:02.802Z,27.40
2023-12-15T17:53:30.867Z,20.75
2023-12-15T17:55:59.039Z,22.00
2023-12-15T17:58:28.484Z,25.50
2023-12-15T18:00:56.666Z,32.50
2023-12-15T18:03:25.104Z,24.00
2023-12-15T18:05:53.189Z,26.20
2023-12-15T18:08:21.279Z,28.50
2023-12-15T18:10:49.938Z,30.00
2023-12-15T18:13:18.748Z,23.00
2023-12-15T18:15:48.306Z,17.00
2023-12-15T18:18:16.522Z,23.60
2023-12-15T18:20:44.611Z,23.00
2023-12-15T18:23:15.046Z,27.00
2023-12-15T18:25:43.453Z,35.75
2023-12-15T18:28:19.558Z,30.00
2023-12-15T18:30:52.593Z,23.60
2023-12-15T18:33:20.888Z,28.50
2023-12-15T18:35:49.298Z,24.20
2023-12-15T18:38:17.326Z,26.40
2023-12-15T18:40:46.182Z,39.00
2023-12-15T18:43:14.361Z,42.00
2023-12-15T18:45:43.533Z,41.50
2023-12-15T18:48:14.799Z,35.00
2023-12-15T18:50:43.222Z,48.50
2023-12-15T18:53:11.363Z,40.80
2023-12-15T18:55:40.184Z,37.50
2023-12-15T18:58:08.365Z,44.60
2023-12-15T19:00:36.708Z,42.60
2023-12-15T19:03:05.084Z,43.40
2023-12-15T19:05:35.602Z,44.33
2023-12-15T19:08:03.954Z,34.40
2023-12-15T19:10:32.098Z,26.25
2023-12-15T19:13:00.215Z,24.80
2023-12-15T19:15:28.833Z,20.00
2023-12-15T19:17:57.935Z,30.25
2023-12-15T19:20:30.527Z,30.00
2023-12-15T19:23:00.561Z,28.80
2023-12-15T19:25:28.683Z,31.50
2023-12-15T19:27:56.828Z,23.00
2023-12-15T19:30:24.997Z,24.80
2023-12-15T19:32:53.388Z,30.00
2023-12-15T19:35:21.903Z,27.60
2023-12-15T19:37:50.107Z,22.67
2023-12-15T19:40:20.064Z,19.50
2023-12-15T19:42:48.214Z,23.25
2023-12-15T19:45:16.323Z,23.00
2023-12-15T19:47:44.363Z,24.00
2023-12-15T19:50:12.626Z,22.00
2023-12-15T19:52:44.228Z,29.20
2023-12-15T19:55:12.594Z,30.75
2023-12-15T19:57:44.177Z,29.00
2023-12-15T20:00:13.150Z,22.25
2023-12-15T20:02:41.217Z,25.80
2023-12-15T20:05:09.576Z,26.60
2023-12-15T20:07:38.132Z,22.40
2023-12-15T20:10:07.604Z,22.60
2023-12-15T20:12:35.770Z,25.00
2023-12-15T20:15:05.846Z,20.40
2023-12-15T20:17:33.994Z,23.00
2023-12-15T20:20:02.357Z,20.60
2023-12-15T20:22:31.342Z,24.20
2023-12-15T20:24:59.460Z,27.00
2023-12-15T20:27:27.568Z,20.25
2023-12-15T20:29:56.143Z,22.50
2023-12-15T20:32:25.563Z,21.00
2023-12-15T20:34:53.698Z,25.80
2023-12-15T20:37:21.836Z,23.50
2023-12-15T20:39:51.064Z,19.40
2023-12-15T20:42:19.129Z,23.20
2023-12-15T20:44:47.443Z,20.60
2023-12-15T20:47:15.582Z,20.60
2023-12-15T20:49:45.348Z,23.60
2023-12-15T20:52:13.565Z,20.80
2023-12-15T20:54:44.761Z,17.50
2023-12-15T20:57:12.864Z,23.00
2023-12-15T20:59:42.140Z,23.75
2023-12-15T21:02:10.364Z,34.60
2023-12-15T21:04:39.284Z,23.00
2023-12-15T21:07:11.589Z,24.00
2023-12-15T21:09:41.045Z,22.00
2023-12-15T21:12:10.102Z,22.50
2023-12-15T21:14:38.213Z,22.00
2023-12-15T21:17:07.056Z,21.60
2023-12-15T21:19:35.416Z,25.00
2023-12-15T21:22:03.994Z,18.00
2023-12-15T21:24:33.509Z,20.00
2023-12-15T21:27:01.590Z,20.80
2023-12-15T21:29:29.699Z,21.75
2023-12-15T21:31:57.932Z,16.75
2023-12-15T21:34:26.325Z,18.25
2023-12-15T21:36:54.529Z,22.00
2023-12-15T21:39:22.641Z,16.25
2023-12-15T21:41:52.057Z,25.00
2023-12-15T21:44:20.188Z,22.60
2023-12-15T21:46:48.288Z,15.00
2023-12-15T21:49:16.545Z,14.00
2023-12-15T21:51:44.773Z,18.75
2023-12-15T21:54:12.909Z,18.00
2023-12-15T21:56:41.006Z,16.00
2023-12-15T21:59:13.414Z,15.00
2023-12-15T22:01:41.633Z,16.00
2023-12-15T22:04:11.938Z,20.75
2023-12-15T22:06:40.362Z,15.50
2023-12-15T22:09:10.397Z,14.00
2023-12-15T22:11:38.476Z,24.50
2023-12-15T22:14:06.547Z,23.20
2023-12-15T22:16:39.679Z,26.50
2023-12-15T22:19:08.200Z,25.50
2023-12-15T22:21:38.157Z,14.00
2023-12-15T22:24:06.590Z,15.40
2023-12-15T22:26:34.691Z,16.00
2023-12-15T22:29:02.816Z,16.00
2023-12-15T22:31:30.996Z,14.20
2023-12-15T22:34:00.812Z,19.60
2023-12-15T22:36:28.940Z,17.75
2023-12-15T22:38:57.038Z,13.00
2023-12-15T22:41:25.120Z,15.00
2023-12-15T22:43:53.222Z,12.00
2023-12-15T22:46:21.592Z,17.00
2023-12-15T22:48:49.820Z,11.00
2023-12-15T22:51:19.296Z,10.00
2023-12-15T22:53:47.408Z,13.20
2023-12-15T22:56:15.916Z,14.40
2023-12-15T22:58:44.125Z,11.00
2023-12-15T23:01:12.491Z,15.00
2023-12-15T23:03:40.848Z,14.40
2023-12-15T23:06:09.341Z,21.00
2023-12-15T23:08:38.838Z,13.20
2023-12-15T23:11:07.176Z,10.50
2023-12-15T23:13:35.832Z,14.80
2023-12-15T23:16:04.123Z,11.25
2023-12-15T23:18:32.476Z,12.00
2023-12-15T23:21:06.739Z,11.50
2023-12-15T23:23:39.052Z,10.00
2023-12-15T23:26:09.572Z,16.80
2023-12-15T23:28:37.823Z,10.00
2023-12-15T23:31:06.283Z,12.80
2023-12-15T23:33:36.487Z,15.40
2023-12-15T23:36:05.157Z,11.80
2023-12-15T23:38:33.227Z,9.20
2023-12-15T23:41:02.686Z,16.00
2023-12-15T23:43:31.159Z,10.00
2023-12-15T23:45:59.908Z,10.00
2023-12-15T23:48:28.247Z,13.00
2023-12-15T23:50:56.404Z,8.75
2023-12-15T23:53:24.508Z,9.00
2023-12-15T23:55:52.579Z,11.60
2023-12-15T23:58:22.031Z,10.00
